Time;durP1;ratioP1;P1;durP2;ratioP2;P2;SDS_P1;SDS_P2;PMS_P1;PMS_P2;Temp;Humidity;BMP_temperature;BMP_pressure;BME280_temperature;BME280_humidity;BME280_pressure;Samples;Min_cycle;Max_cycle;Signal;HPM_P1;HPM_P2
2023/11/11 00:00:50;;;;;;;12.03;2.63;;;8.60;99.90;;;;;;4983292;28;20030;-69
2023/11/11 00:03:17;;;;;;;;;;;8.40;99.90;;;;;;4976467;28;20034;-73
2023/11/11 00:05:43;;;;;;;6.65;2.53;;;8.40;99.90;;;;;;4980945;28;19921;-67
2023/11/11 00:08:09;;;;;;;;;;;8.30;99.90;;;;;;4965198;28;20035;-67
2023/11/11 00:10:35;;;;;;;9.30;2.67;;;8.30;99.90;;;;;;4973475;28;19978;-67
2023/11/11 00:13:02;;;;;;;13.23;4.30;;;8.40;99.90;;;;;;4980344;28;20044;-68
2023/11/11 00:15:28;;;;;;;11.18;3.15;;;8.40;99.90;;;;;;4977105;28;20027;-71
2023/11/11 00:17:54;;;;;;;12.13;2.80;;;8.40;99.90;;;;;;4982906;28;20088;-67
2023/11/11 00:20:20;;;;;;;16.25;3.60;;;8.40;99.90;;;;;;4983792;28;20086;-70
2023/11/11 00:22:46;;;;;;;11.88;3.22;;;8.50;99.90;;;;;;4977959;28;20137;-72
2023/11/11 00:25:16;;;;;;;12.32;3.25;;;8.50;99.90;;;;;;4976234;28;20101;-68
2023/11/11 00:27:42;;;;;;;11.23;3.55;;;8.60;99.90;;;;;;4977958;28;20058;-70
2023/11/11 00:30:13;;;;;;;7.93;2.50;;;8.50;99.90;;;;;;4977360;28;20129;-71
2023/11/11 00:32:39;;;;;;;10.77;2.83;;;8.50;99.90;;;;;;4974600;28;20042;-68
2023/11/11 00:35:08;;;;;;;11.70;2.90;;;8.50;99.90;;;;;;4973939;28;20322;-67
2023/11/11 00:37:34;;;;;;;9.57;4.00;;;8.30;99.90;;;;;;4982620;28;20242;-70
2023/11/11 00:40:00;;;;;;;9.82;2.92;;;8.40;99.90;;;;;;4978306;28;21028;-67
2023/11/11 00:42:25;;;;;;;18.90;3.53;;;8.30;99.90;;;;;;4982663;28;20037;-69
2023/11/11 00:44:52;;;;;;;8.17;3.03;;;8.30;99.90;;;;;;4979039;28;20517;-70
2023/11/11 00:47:17;;;;;;;14.18;3.35;;;8.40;99.90;;;;;;4979841;28;20039;-71
2023/11/11 00:49:47;;;;;;;11.65;3.40;;;8.30;99.90;;;;;;4979295;28;20176;-73
2023/11/11 00:52:13;;;;;;;11.90;3.00;;;8.30;99.90;;;;;;4979263;28;20557;-70
2023/11/11 00:54:39;;;;;;;7.57;2.83;;;8.20;99.90;;;;;;4979060;28;20090;-69
2023/11/11 00:57:05;;;;;;;11.90;2.50;;;8.20;99.90;;;;;;4982056;28;20030;-73
2023/11/11 00:59:31;;;;;;;17.98;3.08;;;8.30;99.90;;;;;;4982657;28;20140;-68
2023/11/11 01:02:01;;;;;;;12.55;2.70;;;8.30;99.90;;;;;;4978055;28;20081;-69
2023/11/11 01:04:27;;;;;;;10.35;2.45;;;8.30;99.90;;;;;;4979115;28;20501;-69
2023/11/11 01:06:53;;;;;;;12.90;2.67;;;8.30;99.90;;;;;;4981848;28;20025;-70
2023/11/11 01:09:19;;;;;;;6.60;2.03;;;8.40;99.90;;;;;;4981746;28;20042;-69
2023/11/11 01:11:45;;;;;;;;;;;8.30;99.90;;;;;;4979464;28;20501;-68
2023/11/11 01:14:11;;;;;;;12.32;2.53;;;8.30;99.90;;;;;;4980733;28;19914;-67
2023/11/11 01:16:37;;;;;;;9.07;2.60;;;8.30;99.90;;;;;;4978968;28;20033;-66
2023/11/11 01:19:03;;;;;;;8.60;3.05;;;8.10;99.90;;;;;;4978941;28;20113;-68
2023/11/11 01:21:29;;;;;;;7.70;2.58;;;8.00;99.90;;;;;;4985937;28;20060;-70
2023/11/11 01:23:56;;;;;;;6.28;2.65;;;8.10;99.90;;;;;;4979019;28;20109;-68
2023/11/11 01:26:23;;;;;;;9.30;2.38;;;8.00;99.90;;;;;;4977823;28;20479;-72
2023/11/11 01:28:50;;;;;;;11.00;2.50;;;8.00;99.90;;;;;;4982102;28;20050;-69
2023/11/11 01:31:15;;;;;;;11.80;2.95;;;7.90;99.90;;;;;;4986081;28;20431;-70
2023/11/11 01:33:41;;;;;;;6.53;2.08;;;8.00;99.90;;;;;;4982537;28;20045;-69
2023/11/11 01:36:07;;;;;;;8.00;2.50;;;7.90;99.90;;;;;;4982205;28;20467;-67
2023/11/11 01:38:34;;;;;;;11.48;2.53;;;7.90;99.90;;;;;;4979535;28;20078;-69
2023/11/11 01:41:03;;;;;;;13.00;2.25;;;7.70;99.90;;;;;;4982810;28;20071;-70
2023/11/11 01:43:28;;;;;;;11.50;2.92;;;7.70;99.90;;;;;;4988896;28;20029;-69
2023/11/11 01:45:55;;;;;;;13.27;3.23;;;7.70;99.90;;;;;;4981335;28;20698;-66
2023/11/11 01:48:21;;;;;;;10.25;2.58;;;7.90;99.90;;;;;;4982186;28;20042;-67
2023/11/11 01:50:47;;;;;;;13.13;2.97;;;7.90;99.90;;;;;;4986191;28;20027;-73
2023/11/11 01:53:16;;;;;;;14.57;2.38;;;8.00;99.90;;;;;;4997030;28;20290;-69
2023/11/11 01:55:42;;;;;;;8.88;2.58;;;8.00;99.90;;;;;;4983066;28;20439;-70
2023/11/11 01:58:09;;;;;;;19.47;3.03;;;7.90;99.90;;;;;;4997871;28;20070;-70
2023/11/11 02:00:41;;;;;;;;;;;8.00;99.90;;;;;;4985267;28;20302;-71
2023/11/11 02:03:08;;;;;;;10.63;2.25;;;7.90;99.90;;;;;;4978358;28;19925;-73
2023/11/11 02:05:34;;;;;;;;;;;7.80;99.90;;;;;;4984054;28;20030;-69
2023/11/11 02:08:03;;;;;;;10.82;3.13;;;7.70;99.90;;;;;;4988383;28;20045;-72
2023/11/11 02:10:30;;;;;;;18.38;3.08;;;7.80;99.90;;;;;;4984514;28;20041;-69
2023/11/11 02:12:58;;;;;;;12.88;2.90;;;7.70;99.90;;;;;;4979737;28;20073;-70
2023/11/11 02:15:24;;;;;;;14.73;3.03;;;7.60;99.90;;;;;;4976478;28;20048;-72
2023/11/11 02:17:52;;;;;;;10.07;2.63;;;7.60;99.90;;;;;;4984325;28;20117;-72
2023/11/11 02:20:18;;;;;;;8.73;3.08;;;7.60;99.90;;;;;;4983457;28;20069;-68
2023/11/11 02:22:44;;;;;;;10.93;2.83;;;7.60;99.90;;;;;;4975913;28;20070;-72
2023/11/11 02:25:10;;;;;;;19.65;3.05;;;7.60;99.90;;;;;;4984220;28;20086;-71
2023/11/11 02:27:35;;;;;;;10.65;3.10;;;7.60;99.90;;;;;;4981580;28;20088;-70
2023/11/11 02:30:04;;;;;;;16.58;3.17;;;7.60;99.90;;;;;;4979408;28;20054;-72
2023/11/11 02:32:31;;;;;;;7.35;2.80;;;7.60;99.90;;;;;;4986299;28;20104;-68
2023/11/11 02:34:57;;;;;;;11.77;2.72;;;7.70;99.90;;;;;;4968613;28;20470;-69
2023/11/11 02:37:23;;;;;;;6.45;2.47;;;7.80;99.90;;;;;;4984827;28;20030;-72
2023/11/11 02:39:49;;;;;;;12.70;2.75;;;7.80;99.90;;;;;;4982326;28;20057;-72
2023/11/11 02:42:15;;;;;;;9.90;3.17;;;7.80;99.90;;;;;;4987520;28;20022;-69
2023/11/11 02:44:40;;;;;;;9.97;3.33;;;7.90;99.90;;;;;;4984021;28;20030;-69
2023/11/11 02:47:06;;;;;;;18.47;2.90;;;8.00;99.90;;;;;;4981998;28;20066;-70
2023/11/11 02:49:32;;;;;;;13.33;3.33;;;8.00;99.90;;;;;;4973770;28;20050;-69
2023/11/11 02:51:58;;;;;;;7.35;2.80;;;7.90;99.90;;;;;;4982296;28;20023;-67
2023/11/11 02:54:24;;;;;;;9.13;2.77;;;8.00;99.90;;;;;;4981315;28;20057;-68
2023/11/11 02:56:49;;;;;;;14.68;4.30;;;8.00;99.90;;;;;;4979103;28;20483;-72
2023/11/11 02:59:15;;;;;;;8.50;2.40;;;8.00;99.90;;;;;;4987191;28;20039;-72
2023/11/11 03:01:41;;;;;;;10.83;2.87;;;8.10;99.90;;;;;;4980751;28;20423;-69
2023/11/11 03:04:07;;;;;;;5.28;2.10;;;8.10;99.90;;;;;;4983220;28;20117;-72
2023/11/11 03:06:33;;;;;;;12.55;2.38;;;8.20;99.90;;;;;;4976118;28;20109;-69
2023/11/11 03:08:59;;;;;;;13.88;2.22;;;8.10;99.90;;;;;;4982296;28;20053;-69
2023/11/11 03:11:25;;;;;;;14.52;2.22;;;8.10;99.90;;;;;;4985232;28;20088;-73
2023/11/11 03:13:51;;;;;;;7.18;2.42;;;8.00;99.90;;;;;;4960074;28;20422;-71
2023/11/11 03:16:17;;;;;;;11.85;2.22;;;8.00;99.90;;;;;;4980936;28;20034;-70
2023/11/11 03:18:45;;;;;;;12.77;2.80;;;7.90;99.90;;;;;;4982006;28;20133;-69
2023/11/11 03:21:21;;;;;;;14.73;2.95;;;7.80;99.90;;;;;;4985208;28;20031;-68
2023/11/11 03:23:46;;;;;;;10.25;2.40;;;7.70;99.90;;;;;;4981456;28;20494;-69
2023/11/11 03:26:12;;;;;;;8.83;2.47;;;7.60;99.90;;;;;;4986389;28;20030;-68
2023/11/11 03:28:38;;;;;;;17.52;3.55;;;7.60;99.90;;;;;;4975072;28;20124;-70
2023/11/11 03:31:04;;;;;;;9.18;2.38;;;7.50;99.90;;;;;;4978757;28;20047;-72
2023/11/11 03:33:29;;;;;;;17.10;3.03;;;7.40;99.90;;;;;;4983385;28;20044;-72
2023/11/11 03:35:55;;;;;;;18.97;2.77;;;7.40;99.90;;;;;;4984377;28;20026;-68
2023/11/11 03:38:22;;;;;;;16.25;2.97;;;7.40;99.90;;;;;;4980520;28;20093;-68
2023/11/11 03:40:48;;;;;;;9.80;2.17;;;7.50;99.90;;;;;;4979192;28;20102;-67
2023/11/11 03:43:13;;;;;;;7.97;2.60;;;7.40;99.90;;;;;;4984333;28;20117;-71
2023/11/11 03:45:39;;;;;;;9.97;2.13;;;7.40;99.90;;;;;;4981937;28;20637;-71
2023/11/11 03:48:05;;;;;;;13.43;2.33;;;7.40;99.90;;;;;;4987689;28;20039;-67
2023/11/11 03:50:31;;;;;;;15.30;3.30;;;7.40;99.90;;;;;;4982856;28;20327;-67
2023/11/11 03:52:57;;;;;;;;;;;7.40;99.90;;;;;;4981982;28;20525;-66
2023/11/11 03:55:22;;;;;;;13.13;2.58;;;7.40;99.90;;;;;;4984541;28;19952;-68
2023/11/11 03:57:48;;;;;;;9.37;3.10;;;7.30;99.90;;;;;;4985329;28;20786;-67
2023/11/11 04:00:19;;;;;;;10.00;3.30;;;7.20;99.90;;;;;;4986193;28;20041;-66
2023/11/11 04:02:45;;;;;;;14.10;3.17;;;7.20;99.90;;;;;;4981454;28;20038;-70
2023/11/11 04:05:14;;;;;;;7.13;1.77;;;7.20;99.90;;;;;;4978578;28;20085;-70
2023/11/11 04:07:40;;;;;;;15.65;3.33;;;7.10;99.90;;;;;;4980858;28;20042;-69
2023/11/11 04:10:07;;;;;;;7.20;2.28;;;7.20;99.90;;;;;;4981319;28;20089;-69
2023/11/11 04:12:32;;;;;;;7.05;2.70;;;7.20;99.90;;;;;;4976071;28;20113;-67
2023/11/11 04:14:59;;;;;;;17.77;2.50;;;7.20;99.90;;;;;;4973008;28;20125;-68
2023/11/11 04:17:25;;;;;;;13.88;2.25;;;7.20;99.90;;;;;;4983837;28;20066;-67
2023/11/11 04:19:51;;;;;;;8.18;2.38;;;7.10;99.90;;;;;;4981844;28;20125;-66
2023/11/11 04:22:16;;;;;;;13.87;3.97;;;7.00;99.90;;;;;;4975779;28;20106;-72
2023/11/11 04:24:42;;;;;;;18.57;3.00;;;7.00;99.90;;;;;;4979355;28;20281;-67
2023/11/11 04:27:08;;;;;;;15.40;2.03;;;7.00;99.90;;;;;;4983036;28;20027;-68
2023/11/11 04:29:34;;;;;;;12.02;2.05;;;7.00;99.90;;;;;;4976201;28;20365;-68
2023/11/11 04:32:00;;;;;;;13.10;2.75;;;6.90;99.90;;;;;;4981255;28;20510;-69
2023/11/11 04:34:28;;;;;;;11.97;2.60;;;6.90;99.90;;;;;;4985955;28;20064;-68
2023/11/11 04:36:56;;;;;;;8.18;2.35;;;6.90;99.90;;;;;;4978566;28;20058;-69
2023/11/11 04:39:22;;;;;;;5.78;3.03;;;6.90;99.90;;;;;;4975109;28;20056;-68
2023/11/11 04:41:48;;;;;;;7.40;2.20;;;6.80;99.90;;;;;;4976417;28;20483;-68
2023/11/11 04:44:14;;;;;;;4.30;1.75;;;6.70;99.90;;;;;;4985253;28;20145;-70
2023/11/11 04:46:39;;;;;;;15.57;2.73;;;6.70;99.90;;;;;;4981943;28;20109;-70
2023/11/11 04:49:05;;;;;;;14.47;2.93;;;6.70;99.90;;;;;;4978415;28;20407;-71
2023/11/11 04:51:31;;;;;;;7.55;2.50;;;6.80;99.90;;;;;;4987497;28;20114;-73
2023/11/11 04:53:57;;;;;;;10.52;3.53;;;6.90;99.90;;;;;;4986530;28;20544;-72
2023/11/11 04:56:22;;;;;;;6.43;2.37;;;6.90;99.90;;;;;;4979516;28;20031;-72
2023/11/11 04:58:48;;;;;;;8.63;2.37;;;6.90;99.90;;;;;;4976879;28;20030;-68
2023/11/11 05:01:15;;;;;;;17.77;2.93;;;6.90;99.90;;;;;;4977313;28;21016;-67
2023/11/11 05:03:41;;;;;;;10.88;3.10;;;7.00;99.90;;;;;;4976360;28;20049;-67
2023/11/11 05:06:07;;;;;;;17.50;2.30;;;7.00;99.90;;;;;;4974802;28;20073;-67
2023/11/11 05:08:33;;;;;;;13.02;2.33;;;7.10;99.90;;;;;;4975348;28;20482;-69
2023/11/11 05:10:59;;;;;;;8.35;2.42;;;7.10;99.90;;;;;;4978332;28;20431;-67
2023/11/11 05:13:24;;;;;;;7.43;2.65;;;7.10;99.90;;;;;;4965764;28;20034;-68
2023/11/11 05:16:03;;;;;;;6.57;2.10;;;7.10;99.90;;;;;;4973609;28;20554;-70
2023/11/11 05:18:29;;;;;;;10.35;1.92;;;7.20;99.90;;;;;;4978821;28;20094;-69
2023/11/11 05:20:55;;;;;;;14.70;2.37;;;7.20;99.90;;;;;;4978031;28;20499;-70
2023/11/11 05:23:21;;;;;;;11.23;2.28;;;7.30;99.90;;;;;;4984298;28;20293;-68
2023/11/11 05:25:46;;;;;;;8.90;2.00;;;7.20;99.90;;;;;;4979865;28;20030;-68
2023/11/11 05:28:13;;;;;;;9.18;2.05;;;7.20;99.90;;;;;;4978370;28;20498;-72
2023/11/11 05:30:39;;;;;;;6.55;2.13;;;7.20;99.90;;;;;;4982085;28;20043;-67
2023/11/11 05:33:05;;;;;;;9.27;2.30;;;7.20;99.90;;;;;;4977032;28;20082;-67
2023/11/11 05:35:31;;;;;;;9.65;2.30;;;7.10;99.90;;;;;;4978921;28;20125;-68
2023/11/11 05:37:58;;;;;;;12.52;2.58;;;7.20;99.90;;;;;;4979374;28;20101;-67
2023/11/11 05:40:24;;;;;;;6.88;1.92;;;7.20;99.90;;;;;;4979865;28;20271;-70
2023/11/11 05:42:49;;;;;;;11.88;2.10;;;7.30;99.90;;;;;;4975284;28;20042;-68
2023/11/11 05:45:17;;;;;;;8.50;2.13;;;7.30;99.90;;;;;;4979291;28;20034;-67
2023/11/11 05:47:45;;;;;;;9.68;3.00;;;7.40;99.90;;;;;;4983714;28;20069;-67
2023/11/11 05:50:11;;;;;;;16.55;3.08;;;7.30;99.90;;;;;;4975605;28;20035;-69
2023/11/11 05:52:38;;;;;;;17.73;4.95;;;7.20;99.90;;;;;;4976908;28;20062;-68
2023/11/11 05:55:08;;;;;;;9.52;2.72;;;7.20;99.90;;;;;;4975798;28;20081;-68
2023/11/11 05:57:35;;;;;;;8.15;2.60;;;7.30;99.90;;;;;;4961122;28;20018;-67
2023/11/11 06:00:03;;;;;;;11.73;2.42;;;7.30;99.90;;;;;;4976144;28;20114;-67
2023/11/11 06:02:29;;;;;;;3.92;2.03;;;7.30;99.90;;;;;;4974807;28;20034;-67
2023/11/11 06:04:55;;;;;;;14.50;4.23;;;7.40;99.90;;;;;;4977355;28;20086;-67
2023/11/11 06:07:21;;;;;;;10.45;2.17;;;7.40;99.90;;;;;;4970176;28;20555;-69
2023/11/11 06:09:46;;;;;;;8.70;2.35;;;7.40;99.90;;;;;;4980375;28;20057;-69
2023/11/11 06:12:13;;;;;;;12.20;2.57;;;7.50;99.90;;;;;;4958704;28;20022;-69
2023/11/11 06:14:38;;;;;;;;;;;7.50;99.90;;;;;;4981981;28;20062;-72
2023/11/11 06:17:04;;;;;;;6.13;1.80;;;7.50;99.90;;;;;;4981302;28;19961;-69
2023/11/11 06:19:30;;;;;;;14.73;2.33;;;7.40;99.90;;;;;;4980724;28;20048;-70
2023/11/11 06:21:56;;;;;;;6.45;2.40;;;7.40;99.90;;;;;;4979801;28;20046;-71
2023/11/11 06:24:21;;;;;;;7.13;2.47;;;7.40;99.90;;;;;;4983985;28;20446;-71
2023/11/11 06:26:47;;;;;;;5.30;2.17;;;7.40;99.90;;;;;;4978342;28;20023;-71
2023/11/11 06:29:12;;;;;;;8.40;2.20;;;7.40;99.90;;;;;;4978896;28;20057;-69
2023/11/11 06:31:38;;;;;;;12.50;2.37;;;7.40;99.90;;;;;;4981668;28;20422;-71
2023/11/11 06:34:04;;;;;;;9.70;2.30;;;7.40;99.90;;;;;;4981536;28;20045;-70
2023/11/11 06:36:30;;;;;;;6.55;2.08;;;7.40;99.90;;;;;;4974088;28;20414;-68
2023/11/11 06:38:56;;;;;;;11.70;2.72;;;7.30;99.90;;;;;;4974505;28;20033;-70
2023/11/11 06:41:22;;;;;;;9.00;2.92;;;7.40;99.90;;;;;;4979831;28;20034;-69
2023/11/11 06:43:48;;;;;;;8.18;2.70;;;7.40;99.90;;;;;;4986039;28;20030;-70
2023/11/11 06:46:14;;;;;;;9.87;2.67;;;7.50;99.90;;;;;;4981683;28;20042;-68
2023/11/11 06:48:40;;;;;;;7.53;2.70;;;7.50;99.90;;;;;;4981861;28;20297;-67
2023/11/11 06:51:06;;;;;;;5.18;2.67;;;7.50;99.90;;;;;;4981856;28;20101;-70
2023/11/11 06:53:31;;;;;;;4.83;2.30;;;7.50;99.90;;;;;;4980381;28;20391;-69
2023/11/11 06:55:57;;;;;;;12.70;3.13;;;7.50;99.90;;;;;;4981633;28;20046;-69
2023/11/11 06:58:23;;;;;;;10.68;2.45;;;7.50;99.90;;;;;;4981989;28;20041;-68
2023/11/11 07:00:48;;;;;;;12.67;3.97;;;7.50;99.90;;;;;;4985406;28;20097;-67
2023/11/11 07:03:14;;;;;;;12.60;3.57;;;7.50;99.90;;;;;;4975429;28;20053;-68
2023/11/11 07:05:40;;;;;;;9.10;3.17;;;7.50;99.90;;;;;;4978047;28;20373;-69
2023/11/11 07:08:05;;;;;;;12.93;3.30;;;7.50;99.90;;;;;;4978920;28;20038;-68
2023/11/11 07:10:34;;;;;;;13.00;4.75;;;7.40;99.90;;;;;;4981210;28;20054;-68
2023/11/11 07:13:01;;;;;;;12.18;3.50;;;7.40;99.90;;;;;;4981725;28;20034;-69
2023/11/11 07:15:27;;;;;;;10.77;3.17;;;7.50;99.90;;;;;;4979469;28;20537;-68
2023/11/11 07:17:53;;;;;;;7.90;3.10;;;7.50;99.90;;;;;;4980627;28;20030;-68
2023/11/11 07:20:21;;;;;;;10.80;3.03;;;7.50;99.90;;;;;;4979170;28;20407;-69
2023/11/11 07:22:50;;;;;;;11.90;3.40;;;7.50;99.90;;;;;;4977460;28;20440;-68
2023/11/11 07:25:17;;;;;;;11.07;3.15;;;7.50;99.90;;;;;;4978446;28;20022;-70
2023/11/11 07:27:43;;;;;;;11.57;4.07;;;7.60;99.90;;;;;;4976598;28;20158;-68
2023/11/11 07:30:10;;;;;;;16.70;4.15;;;7.60;99.90;;;;;;4977722;28;20043;-68
2023/11/11 07:32:43;;;;;;;9.65;3.20;;;7.60;99.90;;;;;;4983686;28;20094;-67
2023/11/11 07:35:11;;;;;;;14.30;4.07;;;7.70;99.90;;;;;;4981993;28;20035;-68
2023/11/11 07:37:38;;;;;;;11.30;5.20;;;7.60;99.90;;;;;;4977982;28;20046;-67
2023/11/11 07:40:05;;;;;;;11.27;4.68;;;7.80;99.90;;;;;;4978151;28;20043;-69
2023/11/11 07:42:31;;;;;;;8.55;3.72;;;7.90;99.90;;;;;;4978581;28;20022;-67
2023/11/11 07:44:58;;;;;;;7.87;3.00;;;7.80;99.90;;;;;;4979599;28;20446;-71
2023/11/11 07:47:24;;;;;;;11.95;3.65;;;7.90;99.90;;;;;;4982557;28;20300;-67
2023/11/11 07:49:50;;;;;;;13.57;3.97;;;7.90;99.90;;;;;;4981194;28;20038;-69
2023/11/11 07:52:16;;;;;;;10.52;3.67;;;7.90;99.90;;;;;;4975987;28;20037;-69
2023/11/11 07:54:42;;;;;;;13.10;3.40;;;8.00;99.90;;;;;;4981869;28;20030;-70
2023/11/11 07:57:07;;;;;;;10.17;3.33;;;8.10;99.90;;;;;;4977281;28;20285;-70
2023/11/11 07:59:37;;;;;;;15.33;3.07;;;8.10;99.90;;;;;;4976686;28;20206;-69
2023/11/11 08:02:02;;;;;;;9.95;2.90;;;8.10;99.90;;;;;;4975207;28;20023;-69
2023/11/11 08:04:28;;;;;;;5.50;2.93;;;8.30;99.90;;;;;;4977764;28;21948;-69
2023/11/11 08:06:53;;;;;;;12.93;2.63;;;8.40;99.90;;;;;;4973269;28;20045;-68
2023/11/11 08:09:20;;;;;;;5.70;2.70;;;8.40;99.90;;;;;;4979353;28;20119;-69
2023/11/11 08:11:46;;;;;;;13.20;3.30;;;8.60;99.90;;;;;;4978771;28;20030;-69
2023/11/11 08:14:13;;;;;;;11.45;3.25;;;8.70;99.90;;;;;;4978245;28;20038;-68
2023/11/11 08:16:39;;;;;;;8.20;2.55;;;8.90;99.90;;;;;;4978783;28;20035;-68
2023/11/11 08:19:05;;;;;;;10.27;2.60;;;9.00;99.90;;;;;;4979021;28;20034;-69
2023/11/11 08:21:32;;;;;;;10.33;3.43;;;9.10;99.90;;;;;;4973322;28;20125;-69
2023/11/11 08:23:58;;;;;;;13.70;4.85;;;9.30;99.90;;;;;;4978643;28;20137;-69
2023/11/11 08:26:25;;;;;;;9.93;4.22;;;9.40;99.90;;;;;;4987267;28;20141;-69
2023/11/11 08:28:51;;;;;;;;;;;9.50;99.90;;;;;;4974631;28;20047;-69
2023/11/11 08:31:17;;;;;;;16.02;3.53;;;9.50;99.90;;;;;;4980807;28;20004;-68
2023/11/11 08:33:43;;;;;;;15.15;4.47;;;9.70;99.90;;;;;;4976560;28;20101;-69
2023/11/11 08:36:09;;;;;;;;;;;10.30;99.90;;;;;;4979880;28;20042;-70
2023/11/11 08:38:35;;;;;;;16.20;4.00;;;10.60;99.90;;;;;;4977859;28;19991;-69
2023/11/11 08:41:01;;;;;;;8.50;3.57;;;10.30;99.90;;;;;;4976359;28;20082;-71
2023/11/11 08:43:27;;;;;;;;;;;10.10;99.90;;;;;;4975779;28;20026;-70
2023/11/11 08:45:53;;;;;;;8.30;3.78;;;10.10;99.90;;;;;;4977773;28;19996;-68
2023/11/11 08:48:19;;;;;;;10.10;3.53;;;10.20;99.90;;;;;;4982187;28;20030;-71
2023/11/11 08:50:45;;;;;;;9.90;3.75;;;10.30;99.90;;;;;;4976402;28;20030;-70
2023/11/11 08:53:11;;;;;;;10.77;3.23;;;10.40;99.90;;;;;;4977027;28;20076;-69
2023/11/11 08:55:36;;;;;;;8.70;3.50;;;10.40;99.90;;;;;;4978425;28;20034;-70
2023/11/11 08:58:02;;;;;;;11.40;3.17;;;10.50;99.90;;;;;;4976773;28;20101;-67
2023/11/11 09:00:29;;;;;;;9.63;3.42;;;10.50;99.90;;;;;;4976730;28;20079;-68
2023/11/11 09:02:55;;;;;;;9.50;3.00;;;10.60;99.90;;;;;;4980924;28;20038;-68
2023/11/11 09:05:20;;;;;;;11.67;3.77;;;10.70;99.90;;;;;;4980398;28;20383;-68
2023/11/11 09:07:47;;;;;;;8.57;3.30;;;10.80;99.90;;;;;;4973956;28;20062;-67
2023/11/11 09:10:12;;;;;;;9.40;4.15;;;10.90;99.90;;;;;;4976289;28;20066;-68
2023/11/11 09:12:38;;;;;;;8.10;3.03;;;11.20;99.90;;;;;;4980681;28;20031;-68
2023/11/11 09:15:05;;;;;;;9.60;3.73;;;11.40;99.90;;;;;;4979815;28;20294;-66
2023/11/11 09:17:31;;;;;;;8.82;3.00;;;11.40;99.90;;;;;;4980170;28;20077;-66
2023/11/11 09:19:58;;;;;;;10.25;3.25;;;11.30;99.90;;;;;;4977463;28;20459;-66
2023/11/11 09:22:25;;;;;;;9.80;2.85;;;11.30;99.90;;;;;;4980917;28;20034;-66
2023/11/11 09:24:51;;;;;;;8.18;3.40;;;11.10;99.90;;;;;;4977348;28;20063;-67
2023/11/11 09:27:18;;;;;;;8.35;2.70;;;11.20;99.90;;;;;;4975051;28;20035;-66
2023/11/11 09:29:43;;;;;;;9.88;3.90;;;11.00;99.90;;;;;;4972201;28;20109;-66
2023/11/11 09:32:11;;;;;;;12.55;2.78;;;10.90;99.90;;;;;;4978069;28;20038;-66
2023/11/11 09:34:42;;;;;;;12.52;3.28;;;10.90;99.90;;;;;;4976689;28;20409;-66
2023/11/11 09:37:07;;;;;;;10.30;3.50;;;10.80;99.90;;;;;;4980568;28;20026;-66
2023/11/11 09:39:33;;;;;;;10.73;3.03;;;10.70;99.90;;;;;;4973211;28;20853;-66
2023/11/11 09:41:59;;;;;;;10.97;3.43;;;10.50;99.90;;;;;;4977666;28;20030;-66
2023/11/11 09:44:25;;;;;;;16.90;3.58;;;10.30;99.90;;;;;;4974572;28;20581;-65
2023/11/11 09:46:54;;;;;;;11.88;3.88;;;10.30;99.90;;;;;;4979507;28;20035;-65
2023/11/11 09:49:20;;;;;;;6.15;2.80;;;10.40;99.90;;;;;;4978183;28;20038;-65
2023/11/11 09:51:47;;;;;;;8.17;2.60;;;11.90;99.90;;;;;;4976830;28;20086;-65
2023/11/11 09:54:14;;;;;;;10.15;3.28;;;12.30;99.90;;;;;;4977798;28;20033;-66
2023/11/11 09:56:43;;;;;;;7.90;2.80;;;12.00;99.90;;;;;;4980895;28;20082;-66
2023/11/11 09:59:10;;;;;;;10.57;3.50;;;11.70;99.90;;;;;;4981697;28;20122;-69
2023/11/11 10:01:37;;;;;;;;;;;11.10;99.90;;;;;;4988707;28;20426;-68
2023/11/11 10:04:03;;;;;;;10.30;2.75;;;10.70;99.90;;;;;;4981935;28;19957;-69
2023/11/11 10:06:29;;;;;;;16.08;4.00;;;10.50;99.90;;;;;;4982609;28;20026;-68
2023/11/11 10:08:55;;;;;;;13.60;3.33;;;10.40;99.90;;;;;;4985694;28;20093;-68
2023/11/11 10:11:21;;;;;;;8.18;2.80;;;10.40;99.90;;;;;;4985086;28;20491;-68
2023/11/11 10:13:47;;;;;;;9.40;3.00;;;10.40;99.90;;;;;;4979955;28;20037;-69
2023/11/11 10:16:18;;;;;;;7.82;2.70;;;10.50;99.90;;;;;;4980473;28;20038;-68
2023/11/11 10:18:47;;;;;;;9.02;3.30;;;10.60;99.90;;;;;;4986428;28;20038;-68
2023/11/11 10:21:16;;;;;;;12.27;3.25;;;10.70;99.90;;;;;;4986102;28;20034;-68
2023/11/11 10:23:44;;;;;;;10.45;2.97;;;10.70;99.90;;;;;;4982465;28;20320;-68
2023/11/11 10:26:10;;;;;;;10.55;2.72;;;10.70;99.90;;;;;;4963512;28;20759;-69
2023/11/11 10:28:50;;;;;;;9.57;2.77;;;10.70;99.80;;;;;;2714197;28;10001653;-69
2023/11/11 10:31:19;;;;;;;8.45;2.05;;;10.60;99.30;;;;;;4984672;28;20030;-69
2023/11/11 10:33:44;;;;;;;14.38;2.60;;;10.60;99.30;;;;;;4978513;28;20114;-71
2023/11/11 10:36:11;;;;;;;13.35;2.55;;;10.50;98.50;;;;;;4978956;28;20520;-70
2023/11/11 10:38:42;;;;;;;8.80;2.50;;;10.50;97.80;;;;;;4977611;28;20037;-71
2023/11/11 10:41:08;;;;;;;6.60;1.67;;;10.60;96.30;;;;;;4980488;28;20023;-70
2023/11/11 10:43:35;;;;;;;7.20;1.55;;;10.50;95.60;;;;;;4980386;28;20034;-70
2023/11/11 10:46:02;;;;;;;14.07;2.58;;;10.60;94.80;;;;;;4963627;28;20034;-71
2023/11/11 10:48:29;;;;;;;9.90;2.30;;;10.60;96.00;;;;;;4993689;28;20045;-69
2023/11/11 10:50:55;;;;;;;9.90;2.08;;;10.70;94.60;;;;;;4982902;28;20064;-71
2023/11/11 10:53:24;;;;;;;9.20;2.20;;;10.70;94.30;;;;;;4975167;28;20089;-71
2023/11/11 10:55:50;;;;;;;7.13;2.20;;;10.60;94.70;;;;;;4978676;28;20037;-72
2023/11/11 10:58:19;;;;;;;6.97;2.40;;;10.60;95.50;;;;;;4984234;28;20030;-71
2023/11/11 11:00:47;;;;;;;8.65;2.03;;;10.60;94.40;;;;;;4978324;28;20027;-71
2023/11/11 11:03:14;;;;;;;6.60;2.00;;;10.70;93.90;;;;;;4981790;28;20137;-71
2023/11/11 11:06:07;;;;;;;9.15;1.90;;;10.70;93.10;;;;;;4975058;28;20058;-73
2023/11/11 11:09:14;;;;;;;8.77;2.17;;;10.70;93.00;;;;;;4980086;28;20085;-72
2023/11/11 11:12:03;;;;;;;7.07;1.42;;;10.70;92.10;;;;;;4976873;28;20880;-72
2023/11/11 11:14:55;;;;;;;7.03;1.83;;;10.70;92.80;;;;;;4966051;28;20043;-70
2023/11/11 11:17:35;;;;;;;4.53;1.50;;;10.70;92.90;;;;;;4983503;28;20037;-73
2023/11/11 11:20:04;;;;;;;10.38;2.10;;;10.60;92.20;;;;;;4980785;28;20055;-75
2023/11/11 11:22:39;;;;;;;7.60;1.85;;;10.60;92.30;;;;;;4966087;28;20038;-74
2023/11/11 11:25:33;;;;;;;9.45;1.83;;;10.70;93.20;;;;;;4971672;28;20109;-74
2023/11/11 11:28:10;;;;;;;8.45;2.28;;;10.70;93.70;;;;;;4977162;28;20089;-73
2023/11/11 11:30:58;;;;;;;6.45;1.80;;;10.60;93.60;;;;;;4979655;28;20034;-74
2023/11/11 11:33:26;;;;;;;11.18;2.40;;;10.70;93.40;;;;;;4980512;28;20086;-74
2023/11/11 11:35:54;;;;;;;11.20;2.72;;;10.70;93.60;;;;;;4979317;28;20038;-73
2023/11/11 11:38:27;;;;;;;9.73;2.25;;;10.70;93.10;;;;;;4979892;28;20026;-73
2023/11/11 11:40:58;;;;;;;7.70;2.35;;;10.70;93.70;;;;;;4976638;28;20040;-72
2023/11/11 11:43:29;;;;;;;5.88;1.67;;;10.80;92.90;;;;;;4982620;28;20038;-72
2023/11/11 11:45:58;;;;;;;10.73;2.45;;;10.70;90.80;;;;;;4978190;28;20039;-73
2023/11/11 11:48:29;;;;;;;5.72;2.00;;;10.80;91.70;;;;;;4978668;28;20113;-75
2023/11/11 11:51:10;;;;;;;11.30;1.88;;;10.80;91.80;;;;;;4979596;28;20042;-71
2023/11/11 11:53:38;;;;;;;14.95;2.83;;;10.80;89.60;;;;;;4979043;28;20105;-73
2023/11/11 11:56:06;;;;;;;8.68;1.83;;;10.80;91.60;;;;;;4978966;28;20038;-71
2023/11/11 11:58:45;;;;;;;7.95;1.80;;;10.80;91.60;;;;;;4974878;28;20668;-69
2023/11/11 12:01:11;;;;;;;7.95;1.60;;;11.00;91.80;;;;;;4982128;28;20402;-70
2023/11/11 12:03:37;;;;;;;9.13;1.98;;;11.10;88.40;;;;;;4976201;28;20026;-72
2023/11/11 12:06:03;;;;;;;5.68;1.10;;;11.30;88.80;;;;;;4968042;28;20042;-72
2023/11/11 12:08:29;;;;;;;11.75;2.17;;;11.30;87.00;;;;;;4977267;28;20042;-71
2023/11/11 12:10:56;;;;;;;9.80;2.03;;;11.50;90.60;;;;;;4976393;28;20066;-71
2023/11/11 12:13:22;;;;;;;8.82;2.45;;;11.70;89.20;;;;;;4965274;28;20182;-71
2023/11/11 12:15:49;;;;;;;7.20;2.43;;;11.80;89.80;;;;;;4975587;28;20093;-74
2023/11/11 12:18:17;;;;;;;6.18;1.65;;;12.00;87.10;;;;;;4967360;28;20373;-72
2023/11/11 12:20:43;;;;;;;5.78;1.80;;;12.10;88.20;;;;;;4980759;28;20146;-72
2023/11/11 12:23:11;;;;;;;6.43;1.67;;;12.10;87.20;;;;;;4972704;28;20086;-72
2023/11/11 12:25:46;;;;;;;6.88;1.45;;;12.10;85.50;;;;;;4977320;28;20027;-71
2023/11/11 12:28:13;;;;;;;8.35;1.70;;;12.10;88.30;;;;;;4980214;28;20073;-71
2023/11/11 12:30:38;;;;;;;;;;;12.10;88.20;;;;;;4971220;28;20423;-72
2023/11/11 12:33:08;;;;;;;5.90;1.33;;;12.20;86.60;;;;;;4975606;28;19914;-74
2023/11/11 12:35:36;;;;;;;7.88;1.67;;;12.20;86.40;;;;;;4980105;28;20046;-76
2023/11/11 12:38:28;;;;;;;7.47;1.08;;;12.30;84.50;;;;;;4975932;28;20082;-74
2023/11/11 12:40:56;;;;;;;7.53;1.40;;;12.40;83.60;;;;;;4972735;28;20033;-75
2023/11/11 12:43:23;;;;;;;7.57;1.83;;;12.50;83.00;;;;;;4976022;28;20030;-77
2023/11/11 12:45:54;;;;;;;;;;;12.50;83.10;;;;;;4984182;28;20485;-76
2023/11/11 12:48:22;;;;;;;5.22;1.30;;;12.40;82.70;;;;;;4975292;28;19914;-73
2023/11/11 12:50:48;;;;;;;3.90;1.10;;;12.40;80.00;;;;;;4973790;28;20035;-76
2023/11/11 12:53:15;;;;;;;;;;;12.40;82.90;;;;;;4985338;28;20038;-74